createdAt,value
2023-01-20T00:01:37.158Z,2.47
2023-01-20T00:04:04.383Z,2.35
2023-01-20T00:06:31.756Z,2.55
2023-01-20T00:09:00.473Z,2.42
2023-01-20T00:11:28.355Z,2.85
2023-01-20T00:13:56.689Z,2.90
2023-01-20T00:16:24.485Z,2.35
2023-01-20T00:18:51.591Z,2.75
2023-01-20T00:21:18.918Z,2.55
2023-01-20T00:23:46.733Z,2.90
2023-01-20T00:26:18.421Z,2.45
2023-01-20T00:28:45.877Z,2.65
2023-01-20T00:31:19.232Z,3.53
2023-01-20T00:33:47.732Z,2.80
2023-01-20T00:36:15.977Z,2.65
2023-01-20T00:38:43.196Z,3.05
2023-01-20T00:41:10.603Z,2.75
2023-01-20T00:43:38.211Z,2.47
2023-01-20T00:46:05.505Z,2.92
2023-01-20T00:48:32.723Z,3.60
2023-01-20T00:50:59.933Z,2.70
2023-01-20T00:53:27.143Z,3.10
2023-01-20T00:55:54.323Z,3.17
2023-01-20T00:58:21.961Z,3.63
2023-01-20T01:00:53.414Z,3.35
2023-01-20T01:03:20.842Z,3.40
2023-01-20T01:05:48.118Z,4.18
2023-01-20T01:08:15.578Z,4.10
2023-01-20T01:10:42.731Z,5.53
2023-01-20T01:13:10.264Z,5.13
2023-01-20T01:15:37.547Z,5.07
2023-01-20T01:18:04.709Z,4.82
2023-01-20T01:20:32.258Z,5.97
2023-01-20T01:22:59.454Z,5.18
2023-01-20T01:25:26.617Z,5.70
2023-01-20T01:27:53.711Z,5.72
2023-01-20T01:30:20.957Z,5.22
2023-01-20T01:32:48.185Z,5.75
2023-01-20T01:35:15.721Z,4.70
2023-01-20T01:37:43.129Z,5.68
2023-01-20T01:40:10.556Z,6.22
2023-01-20T01:42:37.899Z,6.63
2023-01-20T01:45:11.676Z,6.22
2023-01-20T01:47:43.946Z,5.68
2023-01-20T01:52:39.434Z,5.38
2023-01-20T01:55:06.859Z,6.47
2023-01-20T01:57:34.609Z,5.32
2023-01-20T02:00:01.721Z,5.95
2023-01-20T02:02:28.981Z,6.78
2023-01-20T02:04:56.150Z,5.55
2023-01-20T02:07:23.289Z,6.63
2023-01-20T02:09:50.376Z,6.20
2023-01-20T02:12:19.146Z,5.55
2023-01-20T02:14:54.596Z,6.82
2023-01-20T02:17:24.885Z,4.70
2023-01-20T02:20:10.529Z,5.10
2023-01-20T02:22:56.373Z,6.22
2023-01-20T02:25:23.453Z,5.07
2023-01-20T02:28:02.984Z,5.78
2023-01-20T02:30:48.642Z,6.80
2023-01-20T02:33:24.423Z,6.65
2023-01-20T02:35:57.209Z,5.82
2023-01-20T02:38:43.236Z,6.57
2023-01-20T02:41:10.335Z,5.60
2023-01-20T02:43:44.735Z,6.40
2023-01-20T02:46:19.676Z,5.80
2023-01-20T02:48:59.479Z,5.18
2023-01-20T02:51:29.743Z,4.72
2023-01-20T02:54:00.887Z,6.03
2023-01-20T02:56:29.408Z,4.67
2023-01-20T02:58:58.270Z,5.22
2023-01-20T03:01:32.911Z,5.22
2023-01-20T03:04:01.720Z,5.05
2023-01-20T03:06:30.741Z,5.32
2023-01-20T03:08:59.479Z,5.13
2023-01-20T03:11:27.169Z,5.88
2023-01-20T03:14:00.358Z,5.45
2023-01-20T03:16:28.351Z,5.22
2023-01-20T03:18:56.023Z,6.10
2023-01-20T03:21:23.815Z,5.13
2023-01-20T03:23:52.435Z,4.97
2023-01-20T03:26:20.642Z,6.20
2023-01-20T03:28:48.927Z,5.13
2023-01-20T03:31:18.613Z,4.55
2023-01-20T03:33:46.715Z,4.60
2023-01-20T03:36:15.400Z,5.53
2023-01-20T03:38:43.670Z,5.47
2023-01-20T03:41:26.803Z,5.30
2023-01-20T03:44:23.272Z,4.25
2023-01-20T03:46:58.775Z,5.75
2023-01-20T03:49:28.957Z,5.05
2023-01-20T03:51:56.040Z,5.57
2023-01-20T03:54:24.931Z,5.00
2023-01-20T03:56:54.460Z,6.32
2023-01-20T03:59:22.920Z,6.88
2023-01-20T04:01:50.334Z,6.55
2023-01-20T04:04:19.205Z,5.72
2023-01-20T04:06:48.215Z,5.93
2023-01-20T04:09:18.208Z,6.63
2023-01-20T04:11:45.346Z,6.32
2023-01-20T04:14:12.485Z,6.97
2023-01-20T04:16:39.743Z,5.97
2023-01-20T04:19:06.848Z,5.93
2023-01-20T04:21:39.526Z,6.53
2023-01-20T04:24:15.534Z,5.97
2023-01-20T04:26:42.930Z,7.43
2023-01-20T04:29:12.987Z,7.57
2023-01-20T04:31:40.712Z,6.95
2023-01-20T04:34:08.357Z,7.65
2023-01-20T04:36:35.558Z,8.45
2023-01-20T04:39:02.750Z,8.93
2023-01-20T04:41:29.875Z,8.43
2023-01-20T04:43:57.023Z,7.95
2023-01-20T04:46:24.268Z,8.10
2023-01-20T04:48:51.351Z,7.95
2023-01-20T04:51:18.581Z,8.15
2023-01-20T04:53:45.664Z,8.68
2023-01-20T04:56:13.527Z,8.00
2023-01-20T04:58:41.194Z,8.32
2023-01-20T05:01:08.391Z,7.93
2023-01-20T05:03:35.891Z,7.60
2023-01-20T05:06:03.158Z,9.95
2023-01-20T05:08:30.438Z,8.43
2023-01-20T05:10:57.621Z,8.27
2023-01-20T05:13:24.816Z,8.45
2023-01-20T05:15:52.041Z,9.00
2023-01-20T05:18:19.195Z,8.32
2023-01-20T05:20:47.106Z,9.40
2023-01-20T05:23:14.472Z,9.18
2023-01-20T05:25:41.627Z,8.57
2023-01-20T05:28:09.330Z,10.55
2023-01-20T05:30:36.804Z,9.38
2023-01-20T05:33:03.924Z,10.25
2023-01-20T05:35:31.052Z,8.65
2023-01-20T05:37:58.102Z,8.25
2023-01-20T05:40:25.252Z,8.38
2023-01-20T05:42:52.485Z,9.10
2023-01-20T05:45:19.616Z,9.07
2023-01-20T05:47:46.723Z,8.38
2023-01-20T05:50:13.812Z,10.10
2023-01-20T05:52:40.966Z,9.73
2023-01-20T05:55:08.220Z,9.77
2023-01-20T05:57:35.330Z,10.20
2023-01-20T06:00:02.496Z,10.50
2023-01-20T06:02:30.952Z,10.07
2023-01-20T06:05:01.563Z,10.90
2023-01-20T06:07:30.555Z,10.48
2023-01-20T06:09:58.050Z,9.43
2023-01-20T06:12:25.449Z,9.50
2023-01-20T06:14:52.587Z,9.52
2023-01-20T06:17:20.167Z,11.68
2023-01-20T06:19:47.407Z,10.30
2023-01-20T06:22:15.707Z,10.57
2023-01-20T06:24:42.857Z,10.68
2023-01-20T06:27:12.256Z,10.57
2023-01-20T06:29:40.735Z,9.98
2023-01-20T06:32:07.797Z,11.13
2023-01-20T06:34:34.927Z,10.38
2023-01-20T06:37:02.200Z,11.45
2023-01-20T06:39:29.448Z,10.35
2023-01-20T06:42:00.234Z,10.43
2023-01-20T06:44:27.984Z,11.07
2023-01-20T06:46:55.313Z,10.77
2023-01-20T06:49:22.531Z,11.50
2023-01-20T06:51:49.623Z,12.75
2023-01-20T06:54:16.976Z,10.45
2023-01-20T06:56:44.380Z,11.63
2023-01-20T06:59:12.400Z,10.52
2023-01-20T07:01:39.661Z,11.45
2023-01-20T07:04:08.178Z,11.35
2023-01-20T07:06:38.415Z,11.95
2023-01-20T07:09:06.069Z,11.85
2023-01-20T07:11:35.063Z,12.75
2023-01-20T07:14:02.740Z,12.52
2023-01-20T07:16:30.133Z,12.07
2023-01-20T07:18:57.795Z,13.77
2023-01-20T07:21:26.547Z,11.38
2023-01-20T07:23:53.909Z,12.00
2023-01-20T07:26:22.184Z,10.63
2023-01-20T07:28:49.660Z,10.23
2023-01-20T07:31:20.955Z,12.32
2023-01-20T07:33:48.419Z,11.43
2023-01-20T07:36:16.102Z,11.27
2023-01-20T07:38:43.372Z,9.35
2023-01-20T07:41:15.730Z,11.68
2023-01-20T07:43:43.648Z,10.73
2023-01-20T07:46:11.021Z,9.90
2023-01-20T07:48:39.300Z,11.10
2023-01-20T07:51:07.578Z,11.30
2023-01-20T07:53:38.965Z,13.02
2023-01-20T07:56:11.091Z,12.07
2023-01-20T07:58:38.458Z,11.93
2023-01-20T08:01:09.515Z,14.05
2023-01-20T08:03:37.140Z,12.07
2023-01-20T08:06:05.025Z,11.38
2023-01-20T08:08:32.991Z,15.65
2023-01-20T08:11:01.470Z,13.60
2023-01-20T08:13:32.481Z,12.25
2023-01-20T08:16:04.096Z,13.02
2023-01-20T08:18:32.295Z,11.48
2023-01-20T08:20:59.915Z,14.10
2023-01-20T08:23:27.168Z,11.50
2023-01-20T08:25:59.876Z,13.60
2023-01-20T08:28:28.265Z,12.63
2023-01-20T08:30:55.786Z,13.40
2023-01-20T08:33:22.898Z,13.32
2023-01-20T08:35:50.114Z,12.48
2023-01-20T08:38:17.300Z,10.63
2023-01-20T08:40:44.710Z,12.90
2023-01-20T08:43:11.827Z,12.43
2023-01-20T08:45:39.809Z,11.48
2023-01-20T08:48:08.682Z,12.05
2023-01-20T08:50:35.831Z,12.00
2023-01-20T08:53:02.990Z,11.10
2023-01-20T08:55:31.180Z,11.43
2023-01-20T08:57:58.317Z,11.98
2023-01-20T09:00:25.471Z,11.18
2023-01-20T09:02:52.567Z,11.80
2023-01-20T09:05:22.225Z,11.30
2023-01-20T09:07:49.389Z,11.10
2023-01-20T09:10:16.630Z,10.60
2023-01-20T09:12:43.948Z,10.55
2023-01-20T09:15:11.449Z,11.10
2023-01-20T09:17:38.532Z,9.63
2023-01-20T09:20:06.051Z,11.68
2023-01-20T09:22:33.961Z,10.27
2023-01-20T09:25:01.157Z,11.23
2023-01-20T09:27:28.237Z,11.70
2023-01-20T09:29:55.424Z,11.65
2023-01-20T09:32:22.505Z,8.82
2023-01-20T09:34:49.628Z,10.60
2023-01-20T09:37:35.880Z,10.23
2023-01-20T09:40:21.638Z,10.25
2023-01-20T09:43:27.474Z,9.77
2023-01-20T09:46:02.115Z,8.65
2023-01-20T09:48:47.871Z,10.65
2023-01-20T09:51:37.497Z,9.32
2023-01-20T09:54:07.924Z,10.13
2023-01-20T09:56:38.527Z,9.57
2023-01-20T09:59:07.897Z,9.50
2023-01-20T10:01:43.338Z,10.90
2023-01-20T10:04:14.665Z,9.68
2023-01-20T10:06:44.997Z,10.13
2023-01-20T10:09:41.873Z,8.93
2023-01-20T10:12:15.426Z,10.13
2023-01-20T10:14:45.585Z,8.15
2023-01-20T10:17:31.667Z,8.82
2023-01-20T10:20:11.292Z,7.50
2023-01-20T10:22:41.783Z,9.20
2023-01-20T10:25:09.009Z,8.55
2023-01-20T10:27:38.064Z,9.45
2023-01-20T10:30:10.417Z,7.43
2023-01-20T10:32:38.823Z,8.00
2023-01-20T10:35:08.984Z,8.00
2023-01-20T10:37:36.700Z,6.82
2023-01-20T10:40:14.723Z,7.28
2023-01-20T10:42:42.221Z,7.32
2023-01-20T10:45:19.093Z,8.90
2023-01-20T10:48:09.072Z,8.32
2023-01-20T10:50:47.069Z,8.48
2023-01-20T10:53:43.411Z,8.43
2023-01-20T10:56:19.859Z,8.77
2023-01-20T10:58:47.640Z,8.00
2023-01-20T11:01:17.123Z,8.82
2023-01-20T11:03:45.332Z,7.03
2023-01-20T11:06:30.345Z,7.65
2023-01-20T11:08:57.843Z,8.15
2023-01-20T11:11:26.211Z,8.05
2023-01-20T11:13:53.785Z,7.72
2023-01-20T11:16:25.454Z,8.25
2023-01-20T11:19:11.808Z,8.15
2023-01-20T11:21:40.179Z,8.70
2023-01-20T11:24:30.436Z,7.93
2023-01-20T11:27:04.097Z,8.20
2023-01-20T11:29:31.552Z,7.97
2023-01-20T11:31:59.625Z,7.32
2023-01-20T11:34:28.301Z,7.85
2023-01-20T11:37:15.335Z,7.78
2023-01-20T11:39:51.628Z,8.63
2023-01-20T11:42:25.870Z,7.53
2023-01-20T11:44:55.367Z,7.50
2023-01-20T11:47:25.642Z,9.38
2023-01-20T11:50:05.081Z,9.30
2023-01-20T11:52:32.957Z,8.48
2023-01-20T11:55:09.346Z,9.10
2023-01-20T11:57:37.985Z,11.35
2023-01-20T12:00:05.473Z,13.93
2023-01-20T12:02:32.760Z,12.80
2023-01-20T12:05:02.964Z,10.45
2023-01-20T12:07:39.717Z,10.32
2023-01-20T12:10:14.883Z,9.05
2023-01-20T12:13:00.706Z,9.00
2023-01-20T12:15:33.242Z,8.32
2023-01-20T12:18:01.720Z,8.68
2023-01-20T12:20:54.155Z,8.18
2023-01-20T12:23:27.794Z,10.20
2023-01-20T12:25:54.894Z,18.35
2023-01-20T12:28:32.159Z,23.00
2023-01-20T12:31:03.062Z,17.55
2023-01-20T12:33:48.695Z,15.02
2023-01-20T12:36:32.087Z,11.68
2023-01-20T12:39:18.402Z,9.88
2023-01-20T12:41:51.579Z,11.82
2023-01-20T12:44:18.698Z,9.50
2023-01-20T12:46:45.796Z,10.52
2023-01-20T12:49:39.108Z,17.73
2023-01-20T12:52:06.187Z,11.20
2023-01-20T12:54:47.711Z,12.10
2023-01-20T12:57:43.180Z,13.05
2023-01-20T13:00:23.588Z,10.23
2023-01-20T13:02:50.706Z,9.68
2023-01-20T13:05:34.857Z,14.18
2023-01-20T13:08:13.992Z,12.52
2023-01-20T13:10:51.068Z,20.10
2023-01-20T13:13:24.966Z,11.82
2023-01-20T13:15:58.365Z,11.40
2023-01-20T13:18:28.505Z,12.80
2023-01-20T13:20:55.974Z,21.67
2023-01-20T13:23:27.829Z,12.80
2023-01-20T13:25:55.863Z,9.65
2023-01-20T13:28:24.899Z,11.40
2023-01-20T13:30:54.150Z,10.38
2023-01-20T13:33:33.144Z,11.27
2023-01-20T13:36:00.683Z,11.68
2023-01-20T13:38:30.983Z,10.02
2023-01-20T13:41:05.984Z,16.00
2023-01-20T13:43:33.096Z,11.00
2023-01-20T13:46:20.532Z,10.05
2023-01-20T13:49:07.113Z,11.27
2023-01-20T13:51:37.234Z,11.70
2023-01-20T13:54:35.498Z,10.23
2023-01-20T13:57:32.031Z,12.25
2023-01-20T13:59:59.243Z,12.23
2023-01-20T14:02:29.098Z,13.07
2023-01-20T14:04:58.669Z,10.25
2023-01-20T14:07:26.776Z,9.05
2023-01-20T14:09:54.686Z,9.18
2023-01-20T14:12:21.978Z,9.02
2023-01-20T14:14:50.254Z,8.60
2023-01-20T14:17:22.401Z,10.48
2023-01-20T14:19:50.487Z,9.45
2023-01-20T14:22:23.176Z,9.60
2023-01-20T14:24:57.175Z,8.23
2023-01-20T14:27:24.633Z,9.52
2023-01-20T14:29:52.926Z,8.30
2023-01-20T14:32:23.237Z,9.35
2023-01-20T14:34:50.874Z,8.07
2023-01-20T14:37:37.294Z,10.10
2023-01-20T14:40:13.786Z,9.55
2023-01-20T14:42:41.006Z,9.15
2023-01-20T14:45:21.601Z,9.55
2023-01-20T14:47:49.344Z,11.45
2023-01-20T14:50:18.309Z,10.15
2023-01-20T14:52:48.810Z,9.55
2023-01-20T14:55:33.988Z,9.95
2023-01-20T14:58:01.726Z,10.02
2023-01-20T15:00:30.117Z,10.10
2023-01-20T15:03:11.458Z,8.52
2023-01-20T15:05:41.477Z,8.63
2023-01-20T15:08:11.601Z,10.07
2023-01-20T15:10:39.478Z,9.02
2023-01-20T15:13:22.202Z,8.13
2023-01-20T15:15:49.364Z,9.73
2023-01-20T15:18:21.552Z,8.10
2023-01-20T15:21:11.763Z,8.82
2023-01-20T15:23:45.648Z,8.90
2023-01-20T15:26:23.794Z,8.75
2023-01-20T15:28:50.990Z,9.90
2023-01-20T15:31:18.269Z,10.38
2023-01-20T15:33:45.618Z,7.35
2023-01-20T15:36:23.965Z,8.27
2023-01-20T15:38:51.153Z,8.52
2023-01-20T15:41:18.715Z,8.75
2023-01-20T15:43:46.533Z,7.78
2023-01-20T15:46:14.494Z,8.13
2023-01-20T15:48:41.750Z,9.43
2023-01-20T15:51:15.910Z,10.00
2023-01-20T15:53:43.211Z,8.63
2023-01-20T15:56:20.005Z,10.30
2023-01-20T15:58:47.819Z,9.77
2023-01-20T16:01:16.047Z,9.88
2023-01-20T16:03:43.398Z,9.52
2023-01-20T16:06:14.853Z,8.60
2023-01-20T16:08:42.691Z,9.55
2023-01-20T16:11:12.440Z,9.20
2023-01-20T16:13:40.402Z,8.65
2023-01-20T16:16:13.447Z,9.82
2023-01-20T16:18:41.056Z,8.20
2023-01-20T16:21:08.622Z,8.85
2023-01-20T16:23:35.775Z,9.82
2023-01-20T16:26:02.937Z,8.98
2023-01-20T16:28:30.083Z,10.30
2023-01-20T16:30:57.811Z,9.98
2023-01-20T16:33:25.966Z,10.55
2023-01-20T16:35:56.652Z,9.98
2023-01-20T16:38:25.076Z,11.60
2023-01-20T16:40:53.255Z,9.90
2023-01-20T16:43:21.215Z,10.82
2023-01-20T16:45:52.634Z,11.75
2023-01-20T16:48:19.879Z,12.35
2023-01-20T16:50:47.115Z,13.25
2023-01-20T16:53:14.716Z,13.27
2023-01-20T16:55:45.979Z,12.45
2023-01-20T16:58:13.944Z,12.02
2023-01-20T17:00:41.415Z,13.60
2023-01-20T17:03:09.056Z,12.68
2023-01-20T17:05:36.254Z,11.70
2023-01-20T17:08:03.424Z,13.55
2023-01-20T17:10:32.460Z,12.15
2023-01-20T17:12:59.636Z,13.63
2023-01-20T17:15:27.335Z,14.05
2023-01-20T17:17:58.118Z,12.23
2023-01-20T17:20:26.266Z,13.60
2023-01-20T17:22:55.616Z,16.08
2023-01-20T17:25:22.874Z,15.20
2023-01-20T17:27:50.197Z,13.85
2023-01-20T17:30:17.730Z,13.95
2023-01-20T17:32:48.364Z,14.88
2023-01-20T17:35:16.303Z,13.80
2023-01-20T17:37:43.614Z,16.63
2023-01-20T17:40:11.721Z,13.82
2023-01-20T17:42:39.013Z,14.70
2023-01-20T17:45:08.841Z,14.20
2023-01-20T17:47:35.980Z,14.02
2023-01-20T17:50:03.078Z,14.32
2023-01-20T17:52:30.245Z,14.25
2023-01-20T17:54:57.441Z,13.77
2023-01-20T17:57:26.834Z,12.65
2023-01-20T17:59:54.266Z,13.43
2023-01-20T18:02:22.374Z,12.80
2023-01-20T18:04:49.514Z,13.75
2023-01-20T18:07:16.763Z,13.30
2023-01-20T18:09:43.954Z,15.32
2023-01-20T18:12:11.087Z,14.85
2023-01-20T18:14:38.676Z,14.20
2023-01-20T18:17:05.896Z,12.80
2023-01-20T18:19:33.070Z,14.88
2023-01-20T18:22:01.889Z,14.32
2023-01-20T18:24:29.103Z,13.60
2023-01-20T18:26:57.884Z,14.18
2023-01-20T18:29:25.304Z,13.55
2023-01-20T18:31:52.719Z,14.07
2023-01-20T18:34:20.763Z,14.00
2023-01-20T18:36:49.234Z,15.18
2023-01-20T18:39:18.154Z,14.13
2023-01-20T18:41:45.650Z,14.55
2023-01-20T18:44:12.890Z,13.07
2023-01-20T18:46:40.264Z,13.70
2023-01-20T18:49:09.734Z,13.10
2023-01-20T18:51:37.451Z,14.40
2023-01-20T18:54:05.946Z,13.50
2023-01-20T18:56:33.437Z,14.32
2023-01-20T18:59:01.333Z,15.15
2023-01-20T19:01:33.865Z,13.27
2023-01-20T19:04:02.051Z,15.20
2023-01-20T19:06:30.345Z,14.40
2023-01-20T19:08:58.501Z,14.63
2023-01-20T19:11:28.181Z,14.68
2023-01-20T19:13:55.867Z,14.85
2023-01-20T19:16:24.258Z,14.73
2023-01-20T19:18:52.575Z,13.77
2023-01-20T19:21:20.308Z,13.93
2023-01-20T19:23:51.174Z,12.63
2023-01-20T19:26:18.829Z,14.52
2023-01-20T19:28:46.977Z,13.40
2023-01-20T19:31:15.674Z,12.73
2023-01-20T19:33:43.151Z,15.00
2023-01-20T19:36:17.310Z,12.85
2023-01-20T19:38:44.669Z,13.68
2023-01-20T19:41:13.212Z,13.85
2023-01-20T19:43:40.877Z,13.82
2023-01-20T19:46:12.560Z,13.25
2023-01-20T19:48:39.894Z,12.90
2023-01-20T19:51:08.639Z,12.20
2023-01-20T19:53:36.107Z,12.07
2023-01-20T19:56:10.704Z,12.32
2023-01-20T19:58:38.233Z,12.40
2023-01-20T20:01:07.784Z,13.45
2023-01-20T20:03:34.932Z,12.90
2023-01-20T20:06:02.330Z,13.63
2023-01-20T20:08:29.580Z,11.70
2023-01-20T20:10:57.016Z,12.63
2023-01-20T20:13:24.252Z,11.93
2023-01-20T20:15:59.919Z,12.90
2023-01-20T20:18:27.140Z,11.32
2023-01-20T20:20:54.221Z,13.27
2023-01-20T20:23:21.527Z,12.68
2023-01-20T20:25:49.755Z,13.13
2023-01-20T20:28:16.845Z,13.40
2023-01-20T20:30:44.326Z,13.25
2023-01-20T20:33:11.413Z,13.38
2023-01-20T20:35:38.645Z,12.88
2023-01-20T20:38:05.933Z,12.38
2023-01-20T20:40:33.027Z,13.25
2023-01-20T20:43:00.143Z,12.10
2023-01-20T20:45:27.340Z,13.48
2023-01-20T20:47:54.471Z,13.18
2023-01-20T20:50:23.409Z,11.52
2023-01-20T20:52:51.419Z,12.32
2023-01-20T20:55:18.609Z,13.00
2023-01-20T20:57:45.780Z,12.20
2023-01-20T21:00:13.354Z,12.23
2023-01-20T21:02:43.011Z,11.75
2023-01-20T21:05:10.483Z,12.00
2023-01-20T21:07:37.631Z,11.80
2023-01-20T21:10:05.125Z,11.98
2023-01-20T21:12:32.246Z,11.88
2023-01-20T21:14:59.344Z,13.85
2023-01-20T21:17:26.751Z,13.73
2023-01-20T21:19:53.864Z,11.65
2023-01-20T21:22:21.043Z,13.50
2023-01-20T21:24:48.731Z,11.43
2023-01-20T21:27:15.991Z,10.43
2023-01-20T21:29:44.393Z,10.90
2023-01-20T21:32:11.575Z,10.65
2023-01-20T21:34:38.722Z,11.90
2023-01-20T21:37:05.985Z,10.60
2023-01-20T21:39:33.137Z,11.02
2023-01-20T21:42:00.255Z,11.85
2023-01-20T21:44:32.396Z,9.82
2023-01-20T21:47:00.889Z,11.65
2023-01-20T21:49:46.743Z,11.27
2023-01-20T21:52:34.262Z,10.63
2023-01-20T21:55:01.701Z,8.95
2023-01-20T21:57:29.289Z,12.05
2023-01-20T21:59:57.021Z,10.38
2023-01-20T22:02:24.143Z,10.52
2023-01-20T22:04:51.239Z,9.43
2023-01-20T22:07:18.531Z,9.65
2023-01-20T22:09:45.771Z,10.98
2023-01-20T22:12:13.423Z,10.93
2023-01-20T22:14:40.924Z,10.70
2023-01-20T22:17:09.291Z,10.85
2023-01-20T22:19:36.992Z,10.50
2023-01-20T22:22:04.737Z,12.75
2023-01-20T22:24:31.972Z,10.02
2023-01-20T22:26:59.453Z,10.13
2023-01-20T22:29:26.839Z,11.32
2023-01-20T22:31:54.893Z,10.77
2023-01-20T22:34:22.551Z,11.73
2023-01-20T22:36:49.719Z,10.50
2023-01-20T22:39:16.999Z,9.23
2023-01-20T22:41:44.166Z,10.63
2023-01-20T22:44:11.303Z,10.20
2023-01-20T22:46:38.456Z,10.52
2023-01-20T22:49:05.656Z,10.02
2023-01-20T22:51:32.761Z,10.70
2023-01-20T22:54:00.758Z,10.48
2023-01-20T22:56:32.066Z,11.20
2023-01-20T22:58:59.575Z,10.50
2023-01-20T23:01:28.071Z,12.18
2023-01-20T23:03:56.195Z,11.40
2023-01-20T23:06:24.037Z,11.57
2023-01-20T23:08:51.375Z,9.77
2023-01-20T23:11:19.957Z,10.55
2023-01-20T23:13:47.727Z,9.63
2023-01-20T23:16:16.568Z,10.43
2023-01-20T23:18:44.070Z,10.05
2023-01-20T23:21:11.607Z,12.15
2023-01-20T23:23:39.369Z,10.55
2023-01-20T23:26:15.127Z,9.77
2023-01-20T23:28:42.994Z,10.32
2023-01-20T23:31:11.196Z,9.23
2023-01-20T23:33:38.663Z,9.50
2023-01-20T23:36:09.884Z,11.02
2023-01-20T23:38:37.107Z,11.48
2023-01-20T23:41:04.629Z,10.10
2023-01-20T23:43:32.203Z,10.65
2023-01-20T23:46:03.030Z,8.90
2023-01-20T23:48:30.216Z,10.57
2023-01-20T23:50:59.845Z,9.95
2023-01-20T23:53:28.063Z,10.13
2023-01-20T23:56:01.900Z,9.18
2023-01-20T23:58:29.031Z,9.75
